createdAt,value
2018-08-31T00:00:06.034Z,88.24
2018-08-31T00:03:04.031Z,88.75
2018-08-31T00:06:04.003Z,89.81
2018-08-31T00:09:03.926Z,88.96
2018-08-31T00:12:05.554Z,88.14
2018-08-31T00:15:03.871Z,87.69
2018-08-31T00:18:05.522Z,87.18
2018-08-31T00:21:03.794Z,88.10
2018-08-31T00:24:03.802Z,87.18
2018-08-31T00:27:03.738Z,87.29
2018-08-31T00:30:05.531Z,88.61
2018-08-31T00:33:03.670Z,88.24
2018-08-31T00:36:04.675Z,88.14
2018-08-31T00:39:03.595Z,87.94
2018-08-31T00:42:05.512Z,88.34
2018-08-31T00:45:03.525Z,88.04
2018-08-31T00:48:05.028Z,88.24
2018-08-31T00:51:03.456Z,88.55
2018-08-31T00:54:03.429Z,87.94
2018-08-31T00:57:03.724Z,88.34
2018-08-31T01:00:04.383Z,87.69
2018-08-31T01:03:03.327Z,88.10
2018-08-31T01:06:05.041Z,87.08
2018-08-31T01:09:03.253Z,88.61
2018-08-31T01:12:03.211Z,88.10
2018-08-31T01:15:03.189Z,88.34
2018-08-31T01:18:05.023Z,88.24
2018-08-31T01:21:03.115Z,88.55
2018-08-31T01:24:03.089Z,88.55
2018-08-31T01:27:03.051Z,89.57
2018-08-31T01:30:03.059Z,90.01
2018-08-31T01:33:02.979Z,90.22
2018-08-31T01:36:02.957Z,90.47
2018-08-31T01:39:02.936Z,90.67
2018-08-31T01:42:04.521Z,91.79
2018-08-31T01:45:02.841Z,91.39
2018-08-31T01:48:02.804Z,90.98
2018-08-31T01:51:02.753Z,90.88
2018-08-31T01:54:02.762Z,91.59
2018-08-31T01:57:02.740Z,91.59
2018-08-31T02:00:04.521Z,91.89
2018-08-31T02:03:02.654Z,91.59
2018-08-31T02:06:02.655Z,91.83
2018-08-31T02:09:02.581Z,91.49
2018-08-31T02:12:02.563Z,91.69
2018-08-31T02:15:02.491Z,91.89
2018-08-31T02:18:02.518Z,91.74
2018-08-31T02:21:02.449Z,92.45
2018-08-31T02:24:02.462Z,92.96
2018-08-31T02:27:02.365Z,92.86
2018-08-31T02:30:02.367Z,92.35
2018-08-31T02:33:02.294Z,92.55
2018-08-31T02:36:02.303Z,92.04
2018-08-31T02:39:02.287Z,92.76
2018-08-31T02:42:02.223Z,92.55
2018-08-31T02:45:02.177Z,93.67
2018-08-31T02:48:02.153Z,92.65
2018-08-31T02:51:02.102Z,93.51
2018-08-31T02:54:02.066Z,93.62
2018-08-31T02:57:02.067Z,93.96
2018-08-31T03:00:03.517Z,93.96
2018-08-31T03:03:01.951Z,94.17
2018-08-31T03:06:01.940Z,94.68
2018-08-31T03:09:01.897Z,94.58
2018-08-31T03:12:03.516Z,96.26
2018-08-31T03:15:01.806Z,96.46
2018-08-31T03:18:01.824Z,96.00
2018-08-31T03:21:01.745Z,96.81
2018-08-31T03:24:01.747Z,96.61
2018-08-31T03:27:01.698Z,96.71
2018-08-31T03:30:01.697Z,96.81
2018-08-31T03:33:01.628Z,96.26
2018-08-31T03:36:01.598Z,96.00
2018-08-31T03:39:01.534Z,96.61
2018-08-31T03:42:03.571Z,97.02
2018-08-31T03:45:01.474Z,97.12
2018-08-31T03:48:01.454Z,97.12
2018-08-31T03:51:01.399Z,96.05
2018-08-31T03:54:01.431Z,95.64
2018-08-31T03:57:01.367Z,96.05
2018-08-31T04:00:03.007Z,96.05
2018-08-31T04:03:01.263Z,95.75
2018-08-31T04:06:02.994Z,96.15
2018-08-31T04:09:01.187Z,95.95
2018-08-31T04:12:03.037Z,95.85
2018-08-31T04:15:01.221Z,96.01
2018-08-31T04:18:01.119Z,95.90
2018-08-31T04:21:01.084Z,96.01
2018-08-31T04:24:01.142Z,95.90
2018-08-31T04:27:01.027Z,95.80
2018-08-31T04:30:00.969Z,96.21
2018-08-31T04:33:00.946Z,95.50
2018-08-31T04:36:00.963Z,96.01
2018-08-31T04:39:00.878Z,95.90
2018-08-31T04:42:00.901Z,95.50
2018-08-31T04:45:00.800Z,95.39
2018-08-31T04:48:00.819Z,94.98
2018-08-31T04:51:00.735Z,94.98
2018-08-31T04:54:02.518Z,94.98
2018-08-31T04:57:01.673Z,95.60
2018-08-31T05:00:02.469Z,95.19
2018-08-31T05:03:00.631Z,95.19
2018-08-31T05:06:00.553Z,95.70
2018-08-31T05:09:00.527Z,95.70
2018-08-31T05:12:00.549Z,95.19
2018-08-31T05:15:00.467Z,94.37
2018-08-31T05:18:00.474Z,94.89
2018-08-31T05:21:00.387Z,95.70
2018-08-31T05:24:00.378Z,94.78
2018-08-31T05:27:00.312Z,94.64
2018-08-31T05:30:00.304Z,94.02
2018-08-31T05:33:00.247Z,94.53
2018-08-31T05:36:00.270Z,94.02
2018-08-31T05:39:00.185Z,94.53
2018-08-31T05:42:00.170Z,93.82
2018-08-31T05:45:00.115Z,93.88
2018-08-31T05:48:00.141Z,94.23
2018-08-31T05:51:00.053Z,94.43
2018-08-31T05:54:00.050Z,93.88
2018-08-31T05:56:59.981Z,93.37
2018-08-31T05:59:59.962Z,93.67
2018-08-31T06:02:59.927Z,93.32
2018-08-31T06:05:59.887Z,92.50
2018-08-31T06:08:59.828Z,91.44
2018-08-31T06:11:59.917Z,90.28
2018-08-31T06:14:59.776Z,89.73
2018-08-31T06:17:59.746Z,90.40
2018-08-31T06:20:59.738Z,89.99
2018-08-31T06:23:59.692Z,88.06
2018-08-31T06:27:00.518Z,88.02
2018-08-31T06:30:00.581Z,87.92
2018-08-31T06:32:59.552Z,86.45
2018-08-31T06:35:59.548Z,85.94
2018-08-31T06:38:59.471Z,85.49
2018-08-31T06:41:59.442Z,83.93
2018-08-31T06:44:59.389Z,85.21
2018-08-31T06:47:59.364Z,82.43
2018-08-31T06:50:59.330Z,82.98
2018-08-31T06:53:59.337Z,82.33
2018-08-31T06:56:59.267Z,83.26
2018-08-31T07:00:00.981Z,81.10
2018-08-31T07:02:59.194Z,79.24
2018-08-31T07:06:00.955Z,78.15
2018-08-31T07:08:59.112Z,74.80
2018-08-31T07:11:59.110Z,73.38
2018-08-31T07:14:59.052Z,73.32
2018-08-31T07:17:59.025Z,72.21
2018-08-31T07:20:58.984Z,70.76
2018-08-31T07:23:58.976Z,70.09
2018-08-31T07:26:59.328Z,69.52
2018-08-31T07:29:58.935Z,66.74
2018-08-31T07:32:58.870Z,65.93
2018-08-31T07:35:58.855Z,65.90
2018-08-31T07:38:58.808Z,66.23
2018-08-31T07:41:58.784Z,65.20
2018-08-31T07:44:58.727Z,63.07
2018-08-31T07:47:58.794Z,60.38
2018-08-31T07:50:58.698Z,58.39
2018-08-31T07:53:58.729Z,55.92
2018-08-31T07:56:58.584Z,58.95
2018-08-31T07:59:58.589Z,60.68
2018-08-31T08:02:58.549Z,60.58
2018-08-31T08:05:58.512Z,61.30
2018-08-31T08:08:58.445Z,58.81
2018-08-31T08:11:58.421Z,58.81
2018-08-31T08:14:58.957Z,58.82
2018-08-31T08:17:58.368Z,58.32
2018-08-31T08:20:58.306Z,55.17
2018-08-31T08:23:58.349Z,55.11
2018-08-31T08:26:58.535Z,55.97
2018-08-31T08:29:58.247Z,55.51
2018-08-31T08:32:58.190Z,54.91
2018-08-31T08:35:58.180Z,51.89
2018-08-31T08:38:58.162Z,50.78
2018-08-31T08:41:58.134Z,51.50
2018-08-31T08:44:58.067Z,51.35
2018-08-31T08:47:58.048Z,53.02
2018-08-31T08:50:58.011Z,51.59
2018-08-31T08:53:57.995Z,52.99
2018-08-31T08:56:57.952Z,49.13
2018-08-31T08:59:57.907Z,51.47
2018-08-31T09:02:57.867Z,48.83
2018-08-31T09:05:57.847Z,51.47
2018-08-31T09:08:57.842Z,51.37
2018-08-31T09:11:57.817Z,48.56
2018-08-31T09:14:57.772Z,47.89
2018-08-31T09:17:57.729Z,43.26
2018-08-31T09:20:57.676Z,45.79
2018-08-31T09:23:57.691Z,41.71
2018-08-31T09:26:57.608Z,41.71
2018-08-31T09:29:58.446Z,42.01
2018-08-31T09:32:57.571Z,42.13
2018-08-31T09:35:57.516Z,43.01
2018-08-31T09:38:57.478Z,44.23
2018-08-31T09:41:57.519Z,38.70
2018-08-31T09:44:57.473Z,38.23
2018-08-31T09:47:57.493Z,40.68
2018-08-31T09:50:57.346Z,39.40
2018-08-31T09:53:57.353Z,42.89
2018-08-31T09:56:57.942Z,41.39
2018-08-31T09:59:57.289Z,46.16
2018-08-31T10:02:57.228Z,46.03
2018-08-31T10:05:57.224Z,48.37
2018-08-31T10:08:57.168Z,43.08
2018-08-31T10:11:57.147Z,42.03
2018-08-31T10:14:57.136Z,41.87
2018-08-31T10:17:57.105Z,45.00
2018-08-31T10:20:57.044Z,39.12
2018-08-31T10:23:57.012Z,36.21
2018-08-31T10:26:57.003Z,42.47
2018-08-31T10:29:56.956Z,47.06
2018-08-31T10:32:56.907Z,46.06
2018-08-31T10:35:57.459Z,50.35
2018-08-31T10:38:56.833Z,46.49
2018-08-31T10:41:56.814Z,46.03
2018-08-31T10:44:56.779Z,47.77
2018-08-31T10:47:56.765Z,49.49
2018-08-31T10:50:56.702Z,45.72
2018-08-31T10:53:56.728Z,40.33
2018-08-31T10:56:56.633Z,40.64
2018-08-31T10:59:56.635Z,38.71
2018-08-31T11:02:56.587Z,39.63
2018-08-31T11:05:56.562Z,34.15
2018-08-31T11:08:56.534Z,33.33
2018-08-31T11:11:56.501Z,29.50
2018-08-31T11:14:56.466Z,32.27
2018-08-31T11:17:56.435Z,32.28
2018-08-31T11:20:56.480Z,35.25
2018-08-31T11:23:56.367Z,33.75
2018-08-31T11:26:56.329Z,36.66
2018-08-31T11:29:56.342Z,35.24
2018-08-31T11:32:56.263Z,35.02
2018-08-31T11:35:56.254Z,34.84
2018-08-31T11:38:56.227Z,37.56
2018-08-31T11:41:56.199Z,39.80
2018-08-31T11:44:56.165Z,39.39
2018-08-31T11:47:56.197Z,40.88
2018-08-31T11:50:56.095Z,33.85
2018-08-31T11:53:56.065Z,35.86
2018-08-31T11:56:56.048Z,36.31
2018-08-31T11:59:56.019Z,36.23
2018-08-31T12:02:55.981Z,36.86
2018-08-31T12:05:55.955Z,36.61
2018-08-31T12:08:55.902Z,39.39
2018-08-31T12:11:55.911Z,39.01
2018-08-31T12:14:55.938Z,39.97
2018-08-31T12:17:55.835Z,37.86
2018-08-31T12:20:55.836Z,37.82
2018-08-31T12:23:55.787Z,36.00
2018-08-31T12:26:55.708Z,35.13
2018-08-31T12:29:55.722Z,35.88
2018-08-31T12:32:55.654Z,32.64
2018-08-31T12:35:55.691Z,33.49
2018-08-31T12:38:55.590Z,37.20
2018-08-31T12:41:55.667Z,38.10
2018-08-31T12:44:55.532Z,37.60
2018-08-31T12:48:04.075Z,35.77
2018-08-31T12:50:55.557Z,33.47
2018-08-31T12:53:55.588Z,32.32
2018-08-31T12:56:55.580Z,32.62
2018-08-31T12:59:55.531Z,30.37
2018-08-31T13:02:55.441Z,34.50
2018-08-31T13:05:55.470Z,35.50
2018-08-31T13:08:55.281Z,39.12
2018-08-31T13:11:55.336Z,40.28
2018-08-31T13:14:55.230Z,40.89
2018-08-31T13:17:55.228Z,41.33
2018-08-31T13:20:55.145Z,44.07
2018-08-31T13:23:55.118Z,42.68
2018-08-31T13:28:05.451Z,44.62
2018-08-31T13:31:05.492Z,40.62
2018-08-31T13:34:05.378Z,38.99
2018-08-31T13:37:05.359Z,39.11
2018-08-31T13:40:05.358Z,39.11
2018-08-31T13:43:05.297Z,37.86
2018-08-31T13:46:05.356Z,39.11
2018-08-31T13:49:05.247Z,37.41
2018-08-31T13:52:05.214Z,37.93
2018-08-31T13:55:05.190Z,39.10
2018-08-31T13:58:05.168Z,40.83
2018-08-31T14:01:05.108Z,38.04
2018-08-31T14:04:05.090Z,36.82
2018-08-31T14:07:06.123Z,36.27
2018-08-31T14:10:05.002Z,34.20
2018-08-31T14:13:04.974Z,33.27
2018-08-31T14:16:04.948Z,33.32
2018-08-31T14:19:04.932Z,31.78
2018-08-31T14:22:04.881Z,31.90
2018-08-31T14:25:04.846Z,35.27
2018-08-31T14:28:04.816Z,31.50
2018-08-31T14:31:04.797Z,32.51
2018-08-31T14:34:04.756Z,33.52
2018-08-31T14:37:05.520Z,31.87
2018-08-31T14:40:04.697Z,31.26
2018-08-31T14:43:04.677Z,30.94
2018-08-31T14:46:04.628Z,32.31
2018-08-31T14:49:04.622Z,33.54
2018-08-31T14:52:04.560Z,33.29
2018-08-31T14:55:04.597Z,32.46
2018-08-31T14:58:04.538Z,33.67
2018-08-31T15:01:04.499Z,35.96
2018-08-31T15:04:04.581Z,34.52
2018-08-31T15:07:04.423Z,33.94
2018-08-31T15:10:04.379Z,34.99
2018-08-31T15:13:04.422Z,34.63
2018-08-31T15:16:04.357Z,32.00
2018-08-31T15:19:04.301Z,34.06
2018-08-31T15:22:04.257Z,35.19
2018-08-31T15:25:04.275Z,40.50
2018-08-31T15:28:04.194Z,39.26
2018-08-31T15:31:04.174Z,41.88
2018-08-31T15:34:04.152Z,44.32
2018-08-31T15:37:04.099Z,43.24
2018-08-31T15:40:04.066Z,44.66
2018-08-31T15:43:04.053Z,43.68
2018-08-31T15:46:03.988Z,43.88
2018-08-31T15:49:03.969Z,43.50
2018-08-31T15:52:03.962Z,46.23
2018-08-31T15:55:03.917Z,44.02
2018-08-31T15:58:03.867Z,42.35
2018-08-31T16:01:03.840Z,42.60
2018-08-31T16:04:03.812Z,40.95
2018-08-31T16:07:03.790Z,40.36
2018-08-31T16:10:03.741Z,40.58
2018-08-31T16:13:03.715Z,40.59
2018-08-31T16:16:03.674Z,40.06
2018-08-31T16:19:03.777Z,42.07
2018-08-31T16:22:03.607Z,41.30
2018-08-31T16:25:03.574Z,43.41
2018-08-31T16:28:03.578Z,42.18
2018-08-31T16:31:03.522Z,40.64
2018-08-31T16:34:03.473Z,40.56
2018-08-31T16:37:03.524Z,39.83
2018-08-31T16:40:03.416Z,41.61
2018-08-31T16:43:03.405Z,42.63
2018-08-31T16:46:03.333Z,40.92
2018-08-31T16:49:03.361Z,39.20
2018-08-31T16:52:03.274Z,40.78
2018-08-31T16:55:03.284Z,40.16
2018-08-31T16:58:03.206Z,40.88
2018-08-31T17:01:03.204Z,40.62
2018-08-31T17:04:03.155Z,42.18
2018-08-31T17:07:03.402Z,41.83
2018-08-31T17:10:03.097Z,41.61
2018-08-31T17:13:03.082Z,41.22
2018-08-31T17:16:03.013Z,42.05
2018-08-31T17:19:03.019Z,43.09
2018-08-31T17:22:02.948Z,42.97
2018-08-31T17:25:02.931Z,43.13
2018-08-31T17:28:02.900Z,43.55
2018-08-31T17:31:02.882Z,44.26
2018-08-31T17:34:02.817Z,44.68
2018-08-31T17:37:02.787Z,45.28
2018-08-31T17:40:02.745Z,45.78
2018-08-31T17:43:02.732Z,46.20
2018-08-31T17:46:02.669Z,45.34
2018-08-31T17:49:02.655Z,51.74
2018-08-31T17:52:02.642Z,50.51
2018-08-31T17:55:02.614Z,52.62
2018-08-31T17:58:02.561Z,54.46
2018-08-31T18:01:02.533Z,54.76
2018-08-31T18:04:02.556Z,56.81
2018-08-31T18:07:02.447Z,56.12
2018-08-31T18:10:02.399Z,58.87
2018-08-31T18:13:02.409Z,58.00
2018-08-31T18:16:02.468Z,59.03
2018-08-31T18:19:02.350Z,58.25
2018-08-31T18:22:02.261Z,58.45
2018-08-31T18:25:02.245Z,60.84
2018-08-31T18:28:03.278Z,61.37
2018-08-31T18:31:02.287Z,64.04
2018-08-31T18:34:02.209Z,64.07
2018-08-31T18:37:02.155Z,63.86
2018-08-31T18:40:02.226Z,66.23
2018-08-31T18:43:02.034Z,65.14
2018-08-31T18:46:02.052Z,64.73
2018-08-31T18:49:01.983Z,63.82
2018-08-31T18:52:01.995Z,64.00
2018-08-31T18:55:01.980Z,65.95
2018-08-31T18:58:02.007Z,65.82
2018-08-31T19:01:01.835Z,64.64
2018-08-31T19:04:01.871Z,63.49
2018-08-31T19:07:01.819Z,61.43
2018-08-31T19:10:01.785Z,61.43
2018-08-31T19:13:01.813Z,62.68
2018-08-31T19:16:01.671Z,64.50
2018-08-31T19:19:01.656Z,65.65
2018-08-31T19:22:01.584Z,65.65
2018-08-31T19:25:01.585Z,66.69
2018-08-31T19:28:01.556Z,67.74
2018-08-31T19:31:01.522Z,67.57
2018-08-31T19:34:01.485Z,69.50
2018-08-31T19:37:01.455Z,68.82
2018-08-31T19:40:01.377Z,68.99
2018-08-31T19:43:01.365Z,68.69
2018-08-31T19:46:01.303Z,70.72
2018-08-31T19:49:01.324Z,70.01
2018-08-31T19:52:01.262Z,70.89
2018-08-31T19:55:01.252Z,69.87
2018-08-31T19:58:01.176Z,71.19
2018-08-31T20:01:01.177Z,71.80
2018-08-31T20:04:01.121Z,73.06
2018-08-31T20:07:01.136Z,73.26
2018-08-31T20:10:01.050Z,74.11
2018-08-31T20:13:01.016Z,74.62
2018-08-31T20:16:00.992Z,75.02
2018-08-31T20:19:00.950Z,75.88
2018-08-31T20:22:00.929Z,75.16
2018-08-31T20:25:00.875Z,75.78
2018-08-31T20:28:00.849Z,75.27
2018-08-31T20:31:00.900Z,76.69
2018-08-31T20:34:00.764Z,76.69
2018-08-31T20:37:00.753Z,77.44
2018-08-31T20:40:00.697Z,78.60
2018-08-31T20:43:00.678Z,79.35
2018-08-31T20:46:00.661Z,79.35
2018-08-31T20:49:00.638Z,79.90
2018-08-31T20:52:00.556Z,80.10
2018-08-31T20:55:00.548Z,81.87
2018-08-31T20:58:00.499Z,81.12
2018-08-31T21:01:00.494Z,82.69
2018-08-31T21:04:00.418Z,81.57
2018-08-31T21:07:00.459Z,83.34
2018-08-31T21:10:00.353Z,84.36
2018-08-31T21:13:00.334Z,84.20
2018-08-31T21:16:00.303Z,83.75
2018-08-31T21:19:00.286Z,82.45
2018-08-31T21:22:00.240Z,81.70
2018-08-31T21:25:00.199Z,81.90
2018-08-31T21:28:00.165Z,83.20
2018-08-31T21:31:00.145Z,84.06
2018-08-31T21:34:00.085Z,84.88
2018-08-31T21:37:00.061Z,84.71
2018-08-31T21:40:00.004Z,85.97
2018-08-31T21:43:00.002Z,86.49
2018-08-31T21:45:59.948Z,86.29
2018-08-31T21:48:59.944Z,87.04
2018-08-31T21:51:59.869Z,88.37
2018-08-31T21:54:59.876Z,88.88
2018-08-31T21:57:59.812Z,88.82
2018-08-31T22:00:59.802Z,89.12
2018-08-31T22:03:59.741Z,88.71
2018-08-31T22:06:59.715Z,88.26
2018-08-31T22:09:59.686Z,87.85
2018-08-31T22:12:59.634Z,88.57
2018-08-31T22:15:59.604Z,89.23
2018-08-31T22:18:59.631Z,89.23
2018-08-31T22:21:59.539Z,89.98
2018-08-31T22:24:59.518Z,91.01
2018-08-31T22:28:07.562Z,89.98
2018-08-31T22:30:59.469Z,90.81
2018-08-31T22:33:59.400Z,90.39
2018-08-31T22:36:59.374Z,89.98
2018-08-31T22:39:59.319Z,89.84
2018-08-31T22:42:59.338Z,90.09
2018-08-31T22:45:59.265Z,90.09
2018-08-31T22:48:59.226Z,89.98
2018-08-31T22:51:59.186Z,90.19
2018-08-31T22:54:59.172Z,89.53
2018-08-31T22:57:59.144Z,89.84
2018-08-31T23:00:59.129Z,90.05
2018-08-31T23:03:59.061Z,90.09
2018-08-31T23:06:59.062Z,91.05
2018-08-31T23:09:59.537Z,91.05
2018-08-31T23:12:59.059Z,92.28
2018-08-31T23:15:58.907Z,93.10
2018-08-31T23:18:58.933Z,91.97
2018-08-31T23:21:58.850Z,92.18
2018-08-31T23:24:58.832Z,92.03
2018-08-31T23:27:58.780Z,90.70
2018-08-31T23:30:58.748Z,92.12
2018-08-31T23:33:58.711Z,94.07
2018-08-31T23:36:59.017Z,94.21
2018-08-31T23:39:58.632Z,93.15
2018-08-31T23:42:58.626Z,94.68
2018-08-31T23:45:58.574Z,94.48
2018-08-31T23:48:58.577Z,94.01
2018-08-31T23:51:58.511Z,94.42
2018-08-31T23:54:58.490Z,94.52
2018-08-31T23:57:58.458Z,94.52
